createdAt,value
2023-05-24T00:00:47.736Z,16.24
2023-05-24T00:03:34.959Z,16.27
2023-05-24T00:06:07.633Z,16.22
2023-05-24T00:08:39.383Z,16.18
2023-05-24T00:11:11.443Z,16.14
2023-05-24T00:13:43.184Z,16.11
2023-05-24T00:16:15.080Z,16.00
2023-05-24T00:18:47.132Z,15.88
2023-05-24T00:21:19.041Z,15.88
2023-05-24T00:23:51.798Z,15.87
2023-05-24T00:26:23.635Z,15.83
2023-05-24T00:28:58.253Z,15.79
2023-05-24T00:31:29.948Z,15.68
2023-05-24T00:34:01.744Z,15.60
2023-05-24T00:36:33.970Z,15.47
2023-05-24T00:39:05.853Z,15.44
2023-05-24T00:41:38.694Z,15.34
2023-05-24T00:44:11.302Z,15.37
2023-05-24T00:46:43.632Z,15.35
2023-05-24T00:49:15.587Z,15.26
2023-05-24T00:51:47.411Z,15.23
2023-05-24T00:54:19.177Z,15.08
2023-05-24T00:56:51.859Z,15.08
2023-05-24T00:59:24.075Z,14.93
2023-05-24T01:01:56.490Z,14.78
2023-05-24T01:04:28.732Z,14.72
2023-05-24T01:07:13.070Z,14.64
2023-05-24T01:09:55.149Z,14.66
2023-05-24T01:12:35.963Z,14.65
2023-05-24T01:15:18.610Z,14.58
2023-05-24T01:18:02.555Z,14.61
2023-05-24T01:20:38.360Z,14.61
2023-05-24T01:23:40.219Z,14.51
2023-05-24T01:26:39.421Z,14.42
2023-05-24T01:29:12.101Z,14.37
2023-05-24T01:31:42.418Z,14.36
2023-05-24T01:34:15.712Z,14.36
2023-05-24T01:36:47.599Z,14.36
2023-05-24T01:39:19.515Z,14.43
2023-05-24T01:42:01.027Z,14.47
2023-05-24T01:44:38.971Z,14.37
2023-05-24T01:47:22.063Z,14.38
2023-05-24T01:50:00.494Z,14.34
2023-05-24T01:52:36.158Z,14.35
2023-05-24T01:55:10.692Z,14.39
2023-05-24T01:57:45.058Z,14.30
2023-05-24T02:00:20.708Z,14.31
2023-05-24T02:02:52.948Z,14.34
2023-05-24T02:05:25.224Z,14.31
2023-05-24T02:07:57.013Z,14.29
2023-05-24T02:10:29.035Z,14.26
2023-05-24T02:13:01.056Z,14.27
2023-05-24T02:15:32.983Z,14.40
2023-05-24T02:18:07.993Z,14.37
2023-05-24T02:20:40.673Z,14.37
2023-05-24T02:23:12.689Z,14.30
2023-05-24T02:25:44.790Z,14.34
2023-05-24T02:28:16.594Z,14.35
2023-05-24T02:30:49.037Z,14.30
2023-05-24T02:33:21.083Z,14.39
2023-05-24T02:35:52.932Z,14.41
2023-05-24T02:38:24.717Z,14.39
2023-05-24T02:40:56.549Z,14.37
2023-05-24T02:43:28.248Z,14.33
2023-05-24T02:46:00.406Z,14.33
2023-05-24T02:48:32.301Z,14.32
2023-05-24T02:51:04.460Z,14.33
2023-05-24T02:53:36.317Z,14.36
2023-05-24T02:56:08.654Z,14.29
2023-05-24T02:58:41.493Z,14.23
2023-05-24T03:01:13.564Z,14.25
2023-05-24T03:03:45.817Z,14.23
2023-05-24T03:06:18.102Z,14.22
2023-05-24T03:08:51.066Z,14.25
2023-05-24T03:11:23.881Z,14.18
2023-05-24T03:13:55.615Z,14.11
2023-05-24T03:16:28.246Z,14.11
2023-05-24T03:19:00.374Z,14.12
2023-05-24T03:21:33.003Z,14.11
2023-05-24T03:24:04.920Z,14.11
2023-05-24T03:26:37.352Z,14.17
2023-05-24T03:29:10.043Z,14.13
2023-05-24T03:31:44.409Z,13.94
2023-05-24T03:34:16.363Z,13.82
2023-05-24T03:36:48.946Z,13.74
2023-05-24T03:39:20.682Z,13.58
2023-05-24T03:41:59.499Z,13.43
2023-05-24T03:44:31.275Z,13.39
2023-05-24T03:47:04.828Z,13.30
2023-05-24T03:49:37.046Z,13.27
2023-05-24T03:52:09.388Z,13.20
2023-05-24T03:54:41.158Z,13.17
2023-05-24T03:57:12.899Z,12.99
2023-05-24T03:59:44.655Z,12.82
2023-05-24T04:02:16.600Z,12.77
2023-05-24T04:04:49.221Z,12.75
2023-05-24T04:07:24.409Z,12.75
2023-05-24T04:09:56.114Z,12.60
2023-05-24T04:12:27.854Z,12.52
2023-05-24T04:15:00.798Z,12.51
2023-05-24T04:17:35.315Z,12.39
2023-05-24T04:20:08.815Z,12.25
2023-05-24T04:22:40.889Z,12.18
2023-05-24T04:25:12.917Z,12.19
2023-05-24T04:27:48.231Z,12.18
2023-05-24T04:30:21.401Z,12.18
2023-05-24T04:32:53.862Z,12.26
2023-05-24T04:35:26.506Z,12.17
2023-05-24T04:37:59.776Z,12.18
2023-05-24T04:40:32.164Z,12.20
2023-05-24T04:43:03.913Z,12.19
2023-05-24T04:45:35.605Z,12.17
2023-05-24T04:48:08.167Z,12.04
2023-05-24T04:50:40.283Z,12.08
2023-05-24T04:53:12.214Z,12.05
2023-05-24T04:55:44.844Z,12.03
2023-05-24T04:58:17.122Z,12.10
2023-05-24T05:00:49.078Z,12.21
2023-05-24T05:03:21.000Z,12.13
2023-05-24T05:05:53.557Z,12.01
2023-05-24T05:08:25.306Z,12.06
2023-05-24T05:10:57.652Z,12.06
2023-05-24T05:13:29.387Z,12.09
2023-05-24T05:16:01.925Z,12.08
2023-05-24T05:18:33.899Z,12.10
2023-05-24T05:21:06.442Z,12.13
2023-05-24T05:23:39.748Z,12.19
2023-05-24T05:26:11.677Z,12.28
2023-05-24T05:28:43.796Z,12.25
2023-05-24T05:31:16.071Z,12.26
2023-05-24T05:33:48.028Z,12.24
2023-05-24T05:36:20.508Z,12.24
2023-05-24T05:38:52.371Z,12.32
2023-05-24T05:41:24.275Z,12.43
2023-05-24T05:43:56.057Z,12.37
2023-05-24T05:46:27.829Z,12.40
2023-05-24T05:48:59.807Z,12.42
2023-05-24T05:51:31.925Z,12.38
2023-05-24T05:54:03.728Z,12.29
2023-05-24T05:56:41.114Z,12.28
2023-05-24T05:59:13.078Z,12.42
2023-05-24T06:01:47.066Z,12.47
2023-05-24T06:04:19.372Z,12.47
2023-05-24T06:06:52.128Z,12.45
2023-05-24T06:09:24.154Z,12.40
2023-05-24T06:11:55.926Z,12.38
2023-05-24T06:14:27.823Z,12.38
2023-05-24T06:17:00.392Z,12.37
2023-05-24T06:19:31.102Z,12.39
2023-05-24T06:22:03.320Z,12.43
2023-05-24T06:24:35.312Z,12.46
2023-05-24T06:27:07.995Z,12.44
2023-05-24T06:29:38.367Z,12.43
2023-05-24T06:32:11.204Z,12.48
2023-05-24T06:34:42.074Z,12.46
2023-05-24T06:37:15.706Z,12.54
2023-05-24T06:39:47.588Z,12.56
2023-05-24T06:42:19.382Z,12.57
2023-05-24T06:44:51.392Z,12.69
2023-05-24T06:47:23.829Z,12.73
2023-05-24T06:49:54.424Z,12.66
2023-05-24T06:52:26.181Z,12.66
2023-05-24T06:54:57.998Z,12.71
2023-05-24T06:57:30.182Z,12.75
2023-05-24T07:00:02.034Z,12.71
2023-05-24T07:02:34.437Z,12.68
2023-05-24T07:05:10.800Z,12.67
2023-05-24T07:07:43.858Z,12.62
2023-05-24T07:10:15.862Z,12.70
2023-05-24T07:12:47.865Z,12.82
2023-05-24T07:15:19.619Z,12.75
2023-05-24T07:17:51.572Z,12.68
2023-05-24T07:20:23.461Z,12.65
2023-05-24T07:22:55.299Z,12.92
2023-05-24T07:25:27.482Z,13.05
2023-05-24T07:27:59.245Z,13.04
2023-05-24T07:30:32.733Z,13.06
2023-05-24T07:33:05.024Z,13.00
2023-05-24T07:35:37.036Z,13.13
2023-05-24T07:38:09.200Z,13.22
2023-05-24T07:40:41.391Z,13.14
2023-05-24T07:43:13.487Z,13.06
2023-05-24T07:45:45.427Z,13.11
2023-05-24T07:48:17.353Z,13.22
2023-05-24T07:50:50.069Z,13.20
2023-05-24T07:53:22.942Z,13.19
2023-05-24T07:55:55.136Z,13.29
2023-05-24T07:58:27.575Z,13.29
2023-05-24T08:00:59.513Z,13.20
2023-05-24T08:03:31.440Z,13.19
2023-05-24T08:06:04.047Z,13.24
2023-05-24T08:08:36.312Z,13.24
2023-05-24T08:11:09.030Z,13.20
2023-05-24T08:13:39.349Z,13.13
2023-05-24T08:16:11.159Z,13.22
2023-05-24T08:18:43.089Z,13.16
2023-05-24T08:21:14.906Z,13.25
2023-05-24T08:23:46.667Z,13.30
2023-05-24T08:26:20.956Z,13.22
2023-05-24T08:28:52.908Z,13.23
2023-05-24T08:31:24.753Z,13.27
2023-05-24T08:33:57.754Z,13.45
2023-05-24T08:36:29.564Z,13.46
2023-05-24T08:39:01.336Z,13.52
2023-05-24T08:41:37.351Z,13.66
2023-05-24T08:44:09.747Z,13.65
2023-05-24T08:46:41.915Z,13.57
2023-05-24T08:49:15.118Z,13.57
2023-05-24T08:51:47.898Z,13.56
2023-05-24T08:54:21.260Z,13.67
2023-05-24T08:56:53.996Z,13.56
2023-05-24T08:59:25.595Z,13.64
2023-05-24T09:01:58.619Z,13.52
2023-05-24T09:04:31.624Z,13.49
2023-05-24T09:07:04.078Z,13.53
2023-05-24T09:09:44.542Z,13.40
2023-05-24T09:14:59.933Z,13.48
2023-05-24T09:17:32.709Z,13.47
2023-05-24T09:20:09.918Z,13.47
2023-05-24T09:22:44.092Z,13.46
2023-05-24T09:25:16.798Z,13.39
2023-05-24T09:27:53.136Z,13.34
2023-05-24T09:30:25.143Z,13.43
2023-05-24T09:33:02.250Z,13.60
2023-05-24T09:35:34.430Z,13.63
2023-05-24T09:38:06.294Z,13.71
2023-05-24T09:40:38.265Z,13.57
2023-05-24T09:43:10.962Z,13.56
2023-05-24T09:45:43.024Z,13.49
2023-05-24T09:48:16.688Z,13.40
2023-05-24T09:51:01.191Z,13.40
2023-05-24T09:53:34.956Z,13.49
2023-05-24T09:56:09.318Z,13.54
2023-05-24T09:58:42.451Z,13.60
2023-05-24T10:01:16.487Z,13.67
2023-05-24T10:03:57.596Z,13.63
2023-05-24T10:06:32.722Z,13.65
2023-05-24T10:09:07.882Z,13.54
2023-05-24T10:11:40.046Z,13.50
2023-05-24T10:14:12.644Z,13.50
2023-05-24T10:16:45.751Z,13.48
2023-05-24T10:19:18.519Z,13.62
2023-05-24T10:21:53.661Z,13.70
2023-05-24T10:24:27.542Z,13.57
2023-05-24T10:27:02.717Z,13.63
2023-05-24T10:29:45.955Z,13.52
2023-05-24T10:32:20.568Z,13.50
2023-05-24T10:34:54.629Z,13.57
2023-05-24T10:37:27.518Z,13.64
2023-05-24T10:40:01.033Z,13.62
2023-05-24T10:42:36.274Z,13.57
2023-05-24T10:45:33.489Z,13.53
2023-05-24T10:48:31.192Z,13.48
2023-05-24T10:51:25.188Z,13.47
2023-05-24T10:53:59.717Z,13.46
2023-05-24T10:56:31.737Z,13.31
2023-05-24T10:59:06.257Z,13.31
2023-05-24T11:01:38.839Z,13.40
2023-05-24T11:04:13.222Z,13.54
2023-05-24T11:06:58.007Z,13.55
2023-05-24T11:09:30.663Z,13.49
2023-05-24T11:12:07.385Z,13.42
2023-05-24T11:14:41.068Z,13.49
2023-05-24T11:17:13.275Z,13.63
2023-05-24T11:19:51.716Z,13.79
2023-05-24T11:22:26.761Z,13.94
2023-05-24T11:25:04.246Z,14.14
2023-05-24T11:27:36.642Z,14.13
2023-05-24T11:30:12.420Z,14.17
2023-05-24T11:32:48.448Z,14.24
2023-05-24T11:35:23.215Z,14.40
2023-05-24T11:37:56.126Z,14.48
2023-05-24T11:40:28.271Z,14.47
2023-05-24T11:43:01.210Z,14.26
2023-05-24T11:45:33.593Z,14.08
2023-05-24T11:48:08.623Z,14.12
2023-05-24T11:50:49.892Z,14.04
2023-05-24T11:53:23.205Z,14.01
2023-05-24T11:55:54.436Z,13.97
2023-05-24T11:58:39.763Z,14.09
2023-05-24T12:01:26.008Z,14.15
2023-05-24T12:03:58.180Z,14.24
2023-05-24T12:06:39.440Z,14.40
2023-05-24T12:09:13.798Z,14.56
2023-05-24T12:11:48.140Z,14.57
2023-05-24T12:14:24.022Z,14.60
2023-05-24T12:16:58.036Z,14.64
2023-05-24T12:19:36.471Z,14.67
2023-05-24T12:22:09.974Z,14.62
2023-05-24T12:24:42.391Z,14.74
2023-05-24T12:27:14.569Z,14.72
2023-05-24T12:29:46.480Z,14.72
2023-05-24T12:32:20.089Z,14.60
2023-05-24T12:34:52.468Z,14.56
2023-05-24T12:37:24.635Z,14.37
2023-05-24T12:39:56.762Z,14.33
2023-05-24T12:42:28.809Z,14.40
2023-05-24T12:45:01.192Z,14.42
2023-05-24T12:47:33.231Z,14.54
2023-05-24T12:50:05.507Z,14.63
2023-05-24T12:52:37.328Z,14.63
2023-05-24T12:55:10.686Z,14.54
2023-05-24T12:57:43.568Z,14.43
2023-05-24T13:00:16.896Z,14.29
2023-05-24T13:02:50.008Z,14.18
2023-05-24T13:05:22.628Z,14.23
2023-05-24T13:07:56.345Z,14.27
2023-05-24T13:10:28.603Z,14.30
2023-05-24T13:13:00.553Z,14.36
2023-05-24T13:15:32.609Z,14.36
2023-05-24T13:18:04.978Z,14.37
2023-05-24T13:20:37.339Z,14.38
2023-05-24T13:23:09.416Z,14.36
2023-05-24T13:25:41.213Z,14.34
2023-05-24T13:28:13.566Z,14.32
2023-05-24T13:30:45.640Z,14.38
2023-05-24T13:33:18.239Z,14.46
2023-05-24T13:35:50.284Z,14.45
2023-05-24T13:38:22.370Z,14.49
2023-05-24T13:40:56.355Z,14.40
2023-05-24T13:43:28.306Z,14.48
2023-05-24T13:46:00.236Z,14.58
2023-05-24T13:48:32.475Z,14.48
2023-05-24T13:51:04.440Z,14.57
2023-05-24T13:53:36.514Z,14.51
2023-05-24T13:56:08.926Z,14.48
2023-05-24T13:58:40.786Z,14.52
2023-05-24T14:01:14.217Z,14.42
2023-05-24T14:03:46.230Z,14.31
2023-05-24T14:06:19.991Z,14.25
2023-05-24T14:08:52.052Z,14.16
2023-05-24T14:11:24.616Z,14.14
2023-05-24T14:14:47.517Z,14.05
2023-05-24T14:16:51.931Z,14.20
2023-05-24T14:19:23.934Z,14.27
2023-05-24T14:21:56.214Z,14.23
2023-05-24T14:24:28.129Z,14.07
2023-05-24T14:26:59.961Z,14.12
2023-05-24T14:29:31.733Z,14.12
2023-05-24T14:32:03.831Z,14.13
2023-05-24T14:34:35.748Z,14.18
2023-05-24T14:37:08.160Z,14.09
2023-05-24T14:39:39.906Z,13.95
2023-05-24T14:42:11.822Z,13.99
2023-05-24T14:44:43.519Z,14.05
2023-05-24T14:47:15.435Z,14.00
2023-05-24T14:49:47.244Z,13.94
2023-05-24T14:52:19.214Z,13.95
2023-05-24T14:54:51.470Z,13.89
2023-05-24T14:57:23.986Z,13.92
2023-05-24T14:59:56.030Z,13.89
2023-05-24T15:02:28.195Z,14.06
2023-05-24T15:05:00.541Z,13.98
2023-05-24T15:07:32.854Z,14.06
2023-05-24T15:10:04.776Z,14.08
2023-05-24T15:12:36.871Z,14.09
2023-05-24T15:15:08.791Z,14.19
2023-05-24T15:17:41.227Z,14.24
2023-05-24T15:20:13.840Z,14.16
2023-05-24T15:22:45.978Z,14.15
2023-05-24T15:25:17.945Z,14.13
2023-05-24T15:27:51.444Z,14.17
2023-05-24T15:30:24.061Z,14.12
2023-05-24T15:32:57.163Z,14.17
2023-05-24T15:35:29.295Z,14.24
2023-05-24T15:38:01.251Z,14.33
2023-05-24T15:40:33.349Z,14.24
2023-05-24T15:43:05.816Z,14.19
2023-05-24T15:45:37.797Z,14.15
2023-05-24T15:48:10.014Z,14.08
2023-05-24T15:53:17.680Z,14.20
2023-05-24T15:55:51.159Z,14.18
2023-05-24T15:58:23.265Z,14.14
2023-05-24T16:00:55.196Z,14.16
2023-05-24T16:03:27.624Z,14.08
2023-05-24T16:05:59.653Z,14.05
2023-05-24T16:08:32.075Z,14.02
2023-05-24T16:11:08.151Z,13.92
2023-05-24T16:13:40.351Z,13.91
2023-05-24T16:16:13.181Z,13.96
2023-05-24T16:18:45.041Z,14.07
2023-05-24T16:21:16.982Z,14.02
2023-05-24T16:23:49.326Z,13.94
2023-05-24T16:26:20.009Z,13.98
2023-05-24T16:28:52.444Z,14.01
2023-05-24T16:31:24.934Z,14.03
2023-05-24T16:33:58.685Z,13.98
2023-05-24T16:36:31.386Z,13.93
2023-05-24T16:39:03.929Z,13.92
2023-05-24T16:41:37.738Z,13.97
2023-05-24T16:44:10.459Z,13.97
2023-05-24T16:46:42.900Z,14.03
2023-05-24T16:49:15.068Z,14.10
2023-05-24T16:51:47.164Z,14.08
2023-05-24T16:54:19.344Z,14.09
2023-05-24T16:56:53.831Z,14.09
2023-05-24T16:59:25.960Z,14.10
2023-05-24T17:01:58.769Z,13.97
2023-05-24T17:04:31.647Z,13.96
2023-05-24T17:07:03.628Z,14.06
2023-05-24T17:09:35.906Z,14.04
2023-05-24T17:12:08.968Z,13.99
2023-05-24T17:14:41.112Z,14.05
2023-05-24T17:17:13.259Z,13.99
2023-05-24T17:19:45.630Z,13.95
2023-05-24T17:22:17.644Z,13.91
2023-05-24T17:24:49.808Z,13.93
2023-05-24T17:27:22.564Z,14.01
2023-05-24T17:29:58.651Z,13.98
2023-05-24T17:32:31.216Z,13.92
2023-05-24T17:35:03.636Z,13.89
2023-05-24T17:37:36.063Z,13.87
2023-05-24T17:40:10.388Z,13.85
2023-05-24T17:42:43.276Z,13.77
2023-05-24T17:45:15.519Z,13.81
2023-05-24T17:47:47.685Z,13.82
2023-05-24T17:50:20.604Z,13.76
2023-05-24T17:52:53.176Z,13.77
2023-05-24T17:55:25.218Z,13.77
2023-05-24T17:57:56.714Z,13.83
2023-05-24T18:00:28.816Z,13.83
2023-05-24T18:03:01.131Z,13.86
2023-05-24T18:05:33.337Z,13.84
2023-05-24T18:08:05.279Z,13.73
2023-05-24T18:10:38.619Z,13.79
2023-05-24T18:13:10.663Z,13.86
2023-05-24T18:15:43.826Z,13.82
2023-05-24T18:18:16.583Z,13.74
2023-05-24T18:20:49.915Z,13.69
2023-05-24T18:23:22.792Z,13.73
2023-05-24T18:26:00.158Z,13.71
2023-05-24T18:28:36.748Z,13.73
2023-05-24T18:31:11.321Z,13.73
2023-05-24T18:33:44.700Z,13.70
2023-05-24T18:36:16.945Z,13.66
2023-05-24T18:38:49.256Z,13.64
2023-05-24T18:41:22.855Z,13.69
2023-05-24T18:43:54.727Z,13.70
2023-05-24T18:46:27.886Z,13.73
2023-05-24T18:49:01.736Z,13.77
2023-05-24T18:51:33.897Z,13.76
2023-05-24T18:54:06.892Z,13.81
2023-05-24T18:56:39.052Z,13.72
2023-05-24T18:59:12.437Z,13.77
2023-05-24T19:01:45.833Z,13.75
2023-05-24T19:04:18.226Z,13.74
2023-05-24T19:06:50.402Z,13.78
2023-05-24T19:09:22.785Z,13.75
2023-05-24T19:11:53.410Z,13.78
2023-05-24T19:14:26.768Z,13.68
2023-05-24T19:17:02.453Z,13.59
2023-05-24T19:19:39.323Z,13.58
2023-05-24T19:22:11.566Z,13.56
2023-05-24T19:24:47.951Z,13.50
2023-05-24T19:27:21.939Z,13.42
2023-05-24T19:29:59.051Z,13.43
2023-05-24T19:32:31.352Z,13.42
2023-05-24T19:35:03.714Z,13.49
2023-05-24T19:37:35.620Z,13.53
2023-05-24T19:40:10.768Z,13.55
2023-05-24T19:42:42.845Z,13.52
2023-05-24T19:45:15.205Z,13.49
2023-05-24T19:47:47.941Z,13.46
2023-05-24T19:50:21.791Z,13.39
2023-05-24T19:52:53.551Z,13.38
2023-05-24T19:55:25.639Z,13.43
2023-05-24T19:57:58.162Z,13.41
2023-05-24T20:00:31.732Z,13.38
2023-05-24T20:03:04.200Z,13.39
2023-05-24T20:05:38.289Z,13.46
2023-05-24T20:08:10.611Z,13.46
2023-05-24T20:10:43.980Z,13.46
2023-05-24T20:13:17.358Z,13.48
2023-05-24T20:15:49.514Z,13.51
2023-05-24T20:18:23.160Z,13.39
2023-05-24T20:20:57.437Z,13.38
2023-05-24T20:23:30.814Z,13.40
2023-05-24T20:26:06.160Z,13.41
2023-05-24T20:28:38.305Z,13.41
2023-05-24T20:31:10.324Z,13.42
2023-05-24T20:33:42.507Z,13.47
2023-05-24T20:36:15.964Z,13.44
2023-05-24T20:38:48.920Z,13.47
2023-05-24T20:41:20.842Z,13.48
2023-05-24T20:43:52.733Z,13.44
2023-05-24T20:46:23.930Z,13.51
2023-05-24T20:48:57.036Z,13.45
2023-05-24T20:51:28.931Z,13.45
2023-05-24T20:54:00.967Z,13.40
2023-05-24T20:56:32.785Z,13.41
2023-05-24T20:59:04.904Z,13.46
2023-05-24T21:01:37.346Z,13.50
2023-05-24T21:04:09.296Z,13.55
2023-05-24T21:06:41.540Z,13.57
2023-05-24T21:09:13.411Z,13.57
2023-05-24T21:11:45.606Z,13.51
2023-05-24T21:14:17.401Z,13.51
2023-05-24T21:16:49.281Z,13.43
2023-05-24T21:19:21.594Z,13.40
2023-05-24T21:21:53.332Z,13.37
2023-05-24T21:24:25.194Z,13.37
2023-05-24T21:26:57.468Z,13.40
2023-05-24T21:29:29.938Z,13.41
2023-05-24T21:32:02.549Z,13.36
2023-05-24T21:34:35.869Z,13.31
2023-05-24T21:37:08.406Z,13.38
2023-05-24T21:39:40.324Z,13.43
2023-05-24T21:42:12.912Z,13.45
2023-05-24T21:44:44.975Z,13.45
2023-05-24T21:47:17.166Z,13.46
2023-05-24T21:49:50.857Z,13.39
2023-05-24T21:52:24.369Z,13.40
2023-05-24T21:54:56.180Z,13.41
2023-05-24T21:57:28.030Z,13.40
2023-05-24T21:59:59.806Z,13.47
2023-05-24T22:02:32.287Z,13.42
2023-05-24T22:05:05.249Z,13.40
2023-05-24T22:07:38.008Z,13.41
2023-05-24T22:10:12.276Z,13.41
2023-05-24T22:12:44.103Z,13.39
2023-05-24T22:15:15.916Z,13.38
2023-05-24T22:17:48.168Z,13.41
2023-05-24T22:20:20.232Z,13.43
2023-05-24T22:22:53.712Z,13.43
2023-05-24T22:25:25.770Z,13.36
2023-05-24T22:27:57.723Z,13.33
2023-05-24T22:30:31.832Z,13.34
2023-05-24T22:33:03.850Z,13.32
2023-05-24T22:35:35.557Z,13.32
2023-05-24T22:38:07.275Z,13.33
2023-05-24T22:40:41.898Z,13.38
2023-05-24T22:43:14.355Z,13.40
2023-05-24T22:45:46.216Z,13.39
2023-05-24T22:48:19.403Z,13.38
2023-05-24T22:50:54.363Z,13.38
2023-05-24T22:53:26.579Z,13.36
2023-05-24T22:55:58.429Z,13.36
2023-05-24T22:58:30.304Z,13.35
2023-05-24T23:01:02.052Z,13.31
2023-05-24T23:03:33.880Z,13.37
2023-05-24T23:06:05.744Z,13.33
2023-05-24T23:08:37.502Z,13.29
2023-05-24T23:11:10.589Z,13.29
2023-05-24T23:13:42.723Z,13.27
2023-05-24T23:16:18.030Z,13.29
2023-05-24T23:18:49.868Z,13.26
2023-05-24T23:21:22.398Z,13.28
2023-05-24T23:23:56.988Z,13.31
2023-05-24T23:26:29.033Z,13.34
2023-05-24T23:29:00.795Z,13.34
2023-05-24T23:31:32.583Z,13.37
2023-05-24T23:34:05.140Z,13.40
2023-05-24T23:36:36.996Z,13.39
2023-05-24T23:39:10.925Z,13.37
2023-05-24T23:41:42.637Z,13.34
2023-05-24T23:44:14.731Z,13.38
2023-05-24T23:46:47.999Z,13.39
2023-05-24T23:49:20.080Z,13.43
2023-05-24T23:51:51.773Z,13.36
2023-05-24T23:54:23.474Z,13.31
2023-05-24T23:56:55.189Z,13.29
2023-05-24T23:59:26.961Z,13.36
